createdAt,value
2022-11-05T00:00:31.478Z,4.20
2022-11-05T00:03:18.629Z,4.00
2022-11-05T00:06:05.373Z,3.70
2022-11-05T00:08:51.156Z,4.40
2022-11-05T00:11:19.179Z,5.10
2022-11-05T00:14:04.853Z,4.80
2022-11-05T00:16:45.034Z,5.00
2022-11-05T00:19:14.995Z,5.00
2022-11-05T00:22:00.239Z,5.30
2022-11-05T00:24:45.754Z,5.50
2022-11-05T00:27:13.787Z,5.60
2022-11-05T00:29:41.852Z,5.50
2022-11-05T00:32:09.868Z,5.50
2022-11-05T00:34:39.279Z,5.20
2022-11-05T00:37:07.404Z,4.90
2022-11-05T00:39:35.564Z,4.50
2022-11-05T00:42:20.946Z,4.70
2022-11-05T00:45:04.400Z,5.10
2022-11-05T00:47:51.928Z,5.60
2022-11-05T00:50:23.392Z,5.60
2022-11-05T00:52:59.401Z,5.40
2022-11-05T00:55:39.083Z,4.90
2022-11-05T00:58:08.626Z,4.70
2022-11-05T01:00:38.777Z,5.40
2022-11-05T01:03:09.934Z,5.10
2022-11-05T01:05:42.662Z,5.10
2022-11-05T01:08:10.846Z,5.40
2022-11-05T01:10:42.389Z,5.60
2022-11-05T01:13:13.215Z,5.30
2022-11-05T01:15:42.047Z,5.50
2022-11-05T01:18:10.139Z,5.40
2022-11-05T01:20:38.433Z,4.60
2022-11-05T01:23:13.239Z,4.80
2022-11-05T01:25:41.809Z,4.60
2022-11-05T01:28:10.520Z,4.60
2022-11-05T01:30:39.236Z,4.70
2022-11-05T01:33:07.581Z,4.80
2022-11-05T01:35:35.710Z,4.80
2022-11-05T01:38:03.812Z,5.00
2022-11-05T01:40:33.677Z,4.90
2022-11-05T01:43:01.649Z,4.80
2022-11-05T01:45:31.391Z,5.10
2022-11-05T01:48:03.911Z,4.90
2022-11-05T01:50:36.910Z,5.20
2022-11-05T01:53:13.707Z,5.00
2022-11-05T01:55:49.117Z,4.90
2022-11-05T01:58:20.852Z,5.00
2022-11-05T02:00:49.143Z,5.10
2022-11-05T02:03:18.416Z,4.80
2022-11-05T02:05:47.393Z,5.20
2022-11-05T02:08:23.496Z,5.00
2022-11-05T02:10:53.323Z,4.60
2022-11-05T02:13:21.300Z,4.50
2022-11-05T02:16:00.211Z,4.70
2022-11-05T02:18:40.043Z,4.60
2022-11-05T02:21:42.923Z,4.40
2022-11-05T02:24:37.421Z,4.40
2022-11-05T02:27:24.911Z,4.50
2022-11-05T02:30:25.034Z,4.70
2022-11-05T02:33:15.364Z,4.90
2022-11-05T02:35:56.710Z,4.90
2022-11-05T02:38:35.972Z,4.80
2022-11-05T02:41:11.397Z,4.90
2022-11-05T02:43:52.096Z,5.10
2022-11-05T02:46:33.149Z,5.90
2022-11-05T02:49:10.180Z,5.00
2022-11-05T02:51:47.884Z,4.40
2022-11-05T02:54:21.030Z,4.50
2022-11-05T02:56:53.635Z,4.40
2022-11-05T02:59:21.667Z,4.80
2022-11-05T03:01:53.085Z,4.80
2022-11-05T03:04:24.666Z,5.10
2022-11-05T03:07:24.997Z,5.00
2022-11-05T03:10:23.520Z,5.00
2022-11-05T03:13:05.647Z,3.90
2022-11-05T03:15:47.818Z,4.20
2022-11-05T03:18:23.101Z,5.10
2022-11-05T03:20:55.640Z,4.60
2022-11-05T03:23:29.011Z,4.80
2022-11-05T03:26:03.006Z,5.10
2022-11-05T03:28:34.697Z,4.40
2022-11-05T03:31:04.762Z,4.70
2022-11-05T03:33:37.626Z,4.30
2022-11-05T03:36:13.960Z,4.30
2022-11-05T03:38:45.360Z,4.40
2022-11-05T03:41:16.282Z,4.40
2022-11-05T03:43:49.513Z,4.60
2022-11-05T03:46:21.090Z,4.30
2022-11-05T03:48:55.322Z,4.30
2022-11-05T03:51:31.486Z,4.30
2022-11-05T03:54:02.086Z,4.70
2022-11-05T03:56:35.430Z,5.00
2022-11-05T03:59:05.439Z,4.90
2022-11-05T04:01:33.819Z,5.00
2022-11-05T04:04:03.588Z,5.10
2022-11-05T04:06:48.997Z,4.60
2022-11-05T04:09:34.382Z,3.60
2022-11-05T04:12:19.693Z,3.50
2022-11-05T04:14:47.724Z,4.20
2022-11-05T04:17:14.742Z,4.20
2022-11-05T04:20:02.943Z,5.00
2022-11-05T04:22:50.959Z,4.80
2022-11-05T04:25:20.026Z,5.80
2022-11-05T04:27:48.944Z,5.20
2022-11-05T04:30:21.708Z,4.90
2022-11-05T04:33:07.448Z,5.00
2022-11-05T04:35:38.847Z,5.20
2022-11-05T04:38:08.608Z,4.80
2022-11-05T04:40:37.291Z,4.40
2022-11-05T04:43:10.604Z,5.00
2022-11-05T04:45:43.163Z,5.20
2022-11-05T04:48:11.658Z,5.20
2022-11-05T04:50:41.106Z,5.10
2022-11-05T04:53:09.469Z,4.90
2022-11-05T04:55:37.692Z,5.10
2022-11-05T04:58:06.215Z,5.40
2022-11-05T05:00:34.300Z,5.70
2022-11-05T05:03:02.356Z,5.50
2022-11-05T05:05:30.618Z,6.00
2022-11-05T05:08:04.010Z,5.30
2022-11-05T05:10:32.167Z,5.20
2022-11-05T05:13:00.337Z,5.70
2022-11-05T05:15:28.387Z,5.30
2022-11-05T05:17:56.737Z,5.30
2022-11-05T05:20:42.024Z,4.90
2022-11-05T05:23:12.057Z,4.60
2022-11-05T05:25:40.335Z,4.80
2022-11-05T05:28:08.342Z,4.20
2022-11-05T05:30:36.339Z,4.50
2022-11-05T05:33:05.464Z,4.50
2022-11-05T05:35:33.438Z,4.70
2022-11-05T05:38:01.448Z,5.00
2022-11-05T05:40:30.817Z,4.50
2022-11-05T05:42:58.967Z,4.80
2022-11-05T05:45:27.013Z,5.10
2022-11-05T05:47:56.298Z,4.50
2022-11-05T05:50:24.299Z,4.60
2022-11-05T05:52:52.379Z,4.60
2022-11-05T05:55:20.418Z,4.30
2022-11-05T05:57:50.598Z,4.70
2022-11-05T06:00:19.043Z,4.80
2022-11-05T06:02:47.274Z,4.20
2022-11-05T06:05:15.571Z,4.10
2022-11-05T06:07:43.621Z,4.30
2022-11-05T06:10:11.753Z,4.40
2022-11-05T06:12:39.920Z,3.80
2022-11-05T06:15:10.009Z,4.40
2022-11-05T06:17:38.055Z,4.20
2022-11-05T06:20:08.508Z,4.40
2022-11-05T06:22:36.528Z,4.20
2022-11-05T06:25:05.289Z,4.40
2022-11-05T06:27:33.309Z,4.40
2022-11-05T06:30:01.360Z,4.20
2022-11-05T06:32:31.227Z,4.80
2022-11-05T06:34:59.259Z,4.00
2022-11-05T06:37:27.845Z,3.90
2022-11-05T06:39:57.177Z,4.20
2022-11-05T06:42:25.522Z,4.50
2022-11-05T06:44:53.586Z,4.90
2022-11-05T06:47:21.558Z,4.80
2022-11-05T06:49:51.294Z,4.40
2022-11-05T06:52:19.388Z,4.60
2022-11-05T06:54:47.580Z,4.70
2022-11-05T06:57:16.187Z,4.70
2022-11-05T06:59:44.373Z,4.50
2022-11-05T07:02:14.068Z,4.50
2022-11-05T07:04:42.176Z,4.80
2022-11-05T07:07:11.617Z,5.00
2022-11-05T07:09:43.035Z,5.00
2022-11-05T07:12:11.243Z,5.40
2022-11-05T07:14:39.344Z,6.50
2022-11-05T07:17:07.312Z,7.50
2022-11-05T07:19:35.318Z,8.50
2022-11-05T07:22:03.283Z,8.60
2022-11-05T07:24:32.753Z,6.70
2022-11-05T07:27:00.761Z,6.00
2022-11-05T07:29:28.820Z,5.10
2022-11-05T07:31:56.814Z,4.50
2022-11-05T07:34:24.846Z,4.30
2022-11-05T07:36:52.808Z,3.90
2022-11-05T07:39:20.987Z,4.20
2022-11-05T07:41:50.514Z,4.30
2022-11-05T07:44:18.659Z,4.40
2022-11-05T07:46:46.640Z,4.60
2022-11-05T07:49:14.698Z,4.90
2022-11-05T07:51:42.702Z,4.80
2022-11-05T07:54:10.725Z,5.10
2022-11-05T07:56:38.676Z,5.40
2022-11-05T07:59:08.085Z,5.80
2022-11-05T08:01:36.130Z,5.50
2022-11-05T08:04:04.495Z,5.80
2022-11-05T08:06:32.965Z,6.20
2022-11-05T08:09:01.038Z,6.70
2022-11-05T08:11:29.054Z,6.90
2022-11-05T08:13:57.136Z,7.70
2022-11-05T08:16:26.511Z,8.20
2022-11-05T08:18:54.697Z,8.30
2022-11-05T08:21:22.700Z,7.90
2022-11-05T08:23:50.748Z,8.00
2022-11-05T08:26:19.506Z,7.70
2022-11-05T08:28:47.566Z,7.90
2022-11-05T08:31:17.778Z,7.90
2022-11-05T08:33:47.124Z,8.00
2022-11-05T08:36:15.129Z,7.60
2022-11-05T08:38:43.191Z,7.90
2022-11-05T08:41:11.203Z,8.20
2022-11-05T08:43:39.239Z,8.40
2022-11-05T08:46:07.510Z,8.80
2022-11-05T08:48:35.557Z,8.50
2022-11-05T08:51:05.119Z,8.70
2022-11-05T08:53:33.171Z,9.00
2022-11-05T08:56:01.186Z,9.00
2022-11-05T08:58:29.266Z,8.70
2022-11-05T09:01:03.502Z,8.50
2022-11-05T09:03:32.882Z,8.50
2022-11-05T09:06:00.865Z,8.60
2022-11-05T09:08:30.231Z,8.60
2022-11-05T09:10:58.265Z,8.30
2022-11-05T09:13:26.871Z,8.30
2022-11-05T09:15:55.651Z,8.40
2022-11-05T09:18:23.661Z,8.30
2022-11-05T09:20:51.680Z,8.70
2022-11-05T09:23:19.887Z,9.00
2022-11-05T09:25:49.284Z,9.10
2022-11-05T09:28:19.098Z,9.00
2022-11-05T09:30:49.316Z,9.00
2022-11-05T09:33:18.692Z,8.90
2022-11-05T09:35:47.064Z,9.00
2022-11-05T09:38:15.565Z,8.90
2022-11-05T09:40:48.479Z,9.30
2022-11-05T09:43:21.498Z,9.30
2022-11-05T09:45:51.113Z,9.20
2022-11-05T09:48:25.069Z,9.50
2022-11-05T09:50:54.472Z,9.60
2022-11-05T09:53:24.442Z,9.50
2022-11-05T09:55:56.150Z,9.50
2022-11-05T09:58:32.676Z,9.60
2022-11-05T10:01:00.941Z,10.00
2022-11-05T10:03:31.373Z,10.10
2022-11-05T10:06:08.326Z,10.00
2022-11-05T10:08:42.652Z,10.10
2022-11-05T10:11:16.703Z,10.20
2022-11-05T10:13:49.720Z,10.50
2022-11-05T10:16:24.906Z,10.70
2022-11-05T10:18:56.995Z,12.10
2022-11-05T10:21:51.469Z,13.10
2022-11-05T10:24:16.279Z,13.20
2022-11-05T10:26:46.628Z,11.70
2022-11-05T10:29:24.717Z,12.20
2022-11-05T10:31:54.878Z,12.00
2022-11-05T10:34:24.713Z,12.20
2022-11-05T10:36:54.260Z,12.30
2022-11-05T10:39:23.442Z,12.90
2022-11-05T10:42:05.291Z,13.10
2022-11-05T10:44:42.640Z,13.20
2022-11-05T10:47:33.548Z,12.80
2022-11-05T10:50:03.031Z,12.10
2022-11-05T10:52:35.272Z,11.80
2022-11-05T10:55:08.049Z,12.40
2022-11-05T10:57:39.480Z,11.60
2022-11-05T11:00:23.430Z,12.10
2022-11-05T11:02:52.901Z,12.60
2022-11-05T11:05:23.729Z,11.90
2022-11-05T11:07:59.690Z,11.70
2022-11-05T11:10:28.489Z,11.60
2022-11-05T11:12:58.165Z,11.70
2022-11-05T11:15:32.475Z,11.50
2022-11-05T11:18:25.917Z,11.70
2022-11-05T11:20:54.114Z,11.50
2022-11-05T11:23:22.163Z,11.70
2022-11-05T11:25:53.829Z,12.30
2022-11-05T11:28:26.419Z,12.20
2022-11-05T11:31:05.864Z,13.30
2022-11-05T11:33:35.030Z,13.10
2022-11-05T11:36:03.552Z,13.40
2022-11-05T11:38:34.037Z,13.50
2022-11-05T11:41:06.937Z,14.00
2022-11-05T11:43:38.407Z,13.50
2022-11-05T11:46:15.774Z,13.20
2022-11-05T11:48:47.464Z,12.30
2022-11-05T11:51:21.468Z,12.40
2022-11-05T11:53:50.638Z,12.10
2022-11-05T11:56:21.272Z,11.80
2022-11-05T11:58:51.033Z,11.90
2022-11-05T12:01:57.057Z,11.80
2022-11-05T12:04:59.903Z,12.00
2022-11-05T12:07:39.941Z,11.70
2022-11-05T12:10:29.659Z,11.70
2022-11-05T12:13:21.291Z,11.70
2022-11-05T12:15:53.437Z,11.70
2022-11-05T12:18:32.389Z,12.10
2022-11-05T12:21:07.765Z,11.90
2022-11-05T12:24:04.684Z,11.90
2022-11-05T12:26:43.680Z,11.90
2022-11-05T12:29:36.196Z,12.10
2022-11-05T12:32:26.545Z,11.70
2022-11-05T12:35:04.611Z,12.00
2022-11-05T12:37:38.456Z,12.40
2022-11-05T12:40:33.924Z,12.80
2022-11-05T12:43:12.029Z,12.90
2022-11-05T12:45:48.114Z,13.10
2022-11-05T12:48:36.771Z,12.80
2022-11-05T12:51:19.677Z,13.70
2022-11-05T12:54:07.184Z,13.90
2022-11-05T12:56:40.460Z,13.60
2022-11-05T12:59:18.226Z,14.00
2022-11-05T13:01:50.092Z,14.50
2022-11-05T13:04:26.660Z,14.20
2022-11-05T13:06:58.143Z,13.20
2022-11-05T13:09:32.855Z,12.60
2022-11-05T13:12:05.403Z,12.30
2022-11-05T13:14:39.019Z,12.50
2022-11-05T13:17:12.544Z,12.50
2022-11-05T13:19:47.871Z,12.40
2022-11-05T13:22:23.003Z,12.30
2022-11-05T13:24:52.161Z,12.20
2022-11-05T13:27:42.057Z,12.40
2022-11-05T13:30:15.992Z,12.80
2022-11-05T13:32:48.076Z,12.60
2022-11-05T13:35:18.740Z,12.20
2022-11-05T13:38:11.286Z,12.30
2022-11-05T13:40:46.651Z,12.50
2022-11-05T13:43:36.001Z,12.30
2022-11-05T13:46:28.936Z,12.50
2022-11-05T13:49:35.034Z,12.50
2022-11-05T13:52:18.380Z,12.20
2022-11-05T13:55:19.031Z,12.00
2022-11-05T13:58:17.319Z,12.10
2022-11-05T14:00:57.619Z,12.10
2022-11-05T14:03:26.187Z,11.90
2022-11-05T14:05:57.101Z,11.90
2022-11-05T14:08:27.829Z,12.00
2022-11-05T14:11:04.487Z,11.90
2022-11-05T14:13:36.856Z,11.90
2022-11-05T14:16:08.946Z,12.00
2022-11-05T14:18:41.013Z,12.10
2022-11-05T14:21:46.467Z,12.00
2022-11-05T14:24:39.751Z,12.00
2022-11-05T14:27:53.272Z,12.10
2022-11-05T14:30:42.857Z,12.30
2022-11-05T14:33:31.029Z,12.30
2022-11-05T14:36:29.276Z,12.20
2022-11-05T14:39:14.069Z,12.10
2022-11-05T14:41:57.342Z,12.00
2022-11-05T14:44:26.748Z,12.00
2022-11-05T14:46:58.458Z,11.90
2022-11-05T14:49:29.725Z,11.90
2022-11-05T14:52:00.449Z,11.80
2022-11-05T14:54:35.749Z,11.90
2022-11-05T14:57:04.348Z,11.90
2022-11-05T14:59:34.766Z,11.90
2022-11-05T15:02:10.772Z,11.80
2022-11-05T15:04:40.587Z,11.60
2022-11-05T15:07:33.317Z,11.80
2022-11-05T15:10:10.246Z,11.80
2022-11-05T15:12:44.385Z,11.70
2022-11-05T15:15:24.201Z,11.80
2022-11-05T15:18:07.097Z,11.60
2022-11-05T15:20:40.713Z,11.70
2022-11-05T15:23:12.488Z,11.50
2022-11-05T15:25:51.869Z,11.80
2022-11-05T15:28:28.244Z,11.70
2022-11-05T15:31:02.020Z,11.60
2022-11-05T15:33:32.430Z,11.50
2022-11-05T15:36:12.677Z,11.70
2022-11-05T15:38:52.114Z,11.40
2022-11-05T15:41:34.511Z,11.40
2022-11-05T15:44:02.868Z,11.30
2022-11-05T15:46:31.276Z,11.10
2022-11-05T15:49:04.139Z,11.10
2022-11-05T15:51:32.204Z,11.10
2022-11-05T15:54:29.223Z,11.00
2022-11-05T15:56:53.694Z,11.00
2022-11-05T15:59:23.284Z,10.90
2022-11-05T16:01:54.478Z,10.90
2022-11-05T16:04:26.177Z,10.90
2022-11-05T16:06:57.008Z,10.80
2022-11-05T16:09:27.116Z,10.80
2022-11-05T16:12:10.427Z,10.80
2022-11-05T16:14:38.575Z,10.80
2022-11-05T16:17:19.040Z,10.70
2022-11-05T16:19:49.542Z,10.70
2022-11-05T16:22:17.866Z,10.70
2022-11-05T16:24:46.303Z,10.60
2022-11-05T16:27:19.464Z,10.60
2022-11-05T16:29:51.731Z,10.60
2022-11-05T16:32:28.627Z,10.50
2022-11-05T16:35:01.844Z,10.50
2022-11-05T16:37:36.513Z,10.60
2022-11-05T16:40:14.179Z,10.60
2022-11-05T16:42:42.621Z,10.60
2022-11-05T16:45:14.826Z,10.50
2022-11-05T16:47:44.199Z,10.50
2022-11-05T16:50:21.126Z,10.50
2022-11-05T16:52:49.344Z,10.50
2022-11-05T16:55:18.216Z,10.50
2022-11-05T16:57:50.078Z,10.50
2022-11-05T17:00:20.887Z,10.40
2022-11-05T17:02:49.501Z,10.60
2022-11-05T17:05:22.584Z,10.50
2022-11-05T17:07:50.889Z,10.40
2022-11-05T17:10:19.450Z,10.50
2022-11-05T17:12:48.156Z,10.40
2022-11-05T17:15:21.637Z,10.50
2022-11-05T17:17:50.306Z,10.40
2022-11-05T17:20:28.296Z,10.50
2022-11-05T17:22:57.760Z,10.50
2022-11-05T17:25:26.668Z,10.40
2022-11-05T17:27:55.008Z,10.30
2022-11-05T17:30:23.416Z,10.40
2022-11-05T17:32:52.034Z,10.40
2022-11-05T17:35:22.144Z,10.30
2022-11-05T17:37:50.151Z,10.40
2022-11-05T17:40:19.796Z,10.40
2022-11-05T17:42:47.835Z,10.90
2022-11-05T17:45:15.964Z,10.20
2022-11-05T17:47:44.185Z,10.20
2022-11-05T17:50:14.683Z,10.30
2022-11-05T17:52:44.530Z,10.30
2022-11-05T17:55:17.515Z,10.30
2022-11-05T17:57:46.939Z,10.30
2022-11-05T18:00:16.623Z,10.30
2022-11-05T18:02:45.977Z,10.20
2022-11-05T18:05:14.416Z,10.30
2022-11-05T18:07:44.089Z,10.30
2022-11-05T18:10:12.561Z,10.30
2022-11-05T18:12:41.064Z,10.30
2022-11-05T18:15:10.499Z,10.40
2022-11-05T18:17:38.556Z,10.30
2022-11-05T18:20:12.963Z,10.40
2022-11-05T18:22:49.059Z,10.30
2022-11-05T18:25:17.446Z,10.40
2022-11-05T18:27:45.793Z,10.30
2022-11-05T18:30:15.819Z,10.40
2022-11-05T18:32:44.701Z,10.40
2022-11-05T18:35:14.488Z,10.40
2022-11-05T18:37:43.334Z,10.30
2022-11-05T18:40:13.569Z,10.40
2022-11-05T18:42:41.857Z,10.50
2022-11-05T18:45:11.309Z,10.50
2022-11-05T18:47:39.431Z,10.40
2022-11-05T18:50:09.261Z,10.30
2022-11-05T18:52:37.604Z,10.40
2022-11-05T18:55:06.600Z,10.30
2022-11-05T18:57:36.165Z,10.40
2022-11-05T19:00:05.047Z,10.30
2022-11-05T19:02:33.271Z,10.30
2022-11-05T19:07:49.620Z,10.60
2022-11-05T19:10:17.790Z,10.50
2022-11-05T19:12:47.108Z,10.40
2022-11-05T19:15:15.121Z,10.50
2022-11-05T19:17:43.157Z,10.50
2022-11-05T19:20:12.513Z,10.40
2022-11-05T19:22:40.542Z,10.50
2022-11-05T19:25:09.135Z,10.50
2022-11-05T19:27:38.580Z,10.50
2022-11-05T19:30:08.986Z,10.40
2022-11-05T19:32:37.134Z,10.50
2022-11-05T19:35:05.664Z,10.40
2022-11-05T19:37:33.671Z,10.30
2022-11-05T19:40:01.696Z,10.40
2022-11-05T19:42:29.684Z,10.20
2022-11-05T19:45:06.896Z,10.30
2022-11-05T19:47:46.316Z,10.40
2022-11-05T19:50:14.385Z,10.40
2022-11-05T19:52:42.373Z,10.50
2022-11-05T19:55:12.275Z,10.30
2022-11-05T19:57:40.630Z,10.20
2022-11-05T20:00:10.004Z,10.10
2022-11-05T20:02:38.108Z,10.20
2022-11-05T20:05:07.956Z,10.10
2022-11-05T20:07:35.961Z,10.20
2022-11-05T20:10:04.125Z,10.20
2022-11-05T20:12:32.127Z,10.10
2022-11-05T20:15:00.217Z,10.00
2022-11-05T20:17:28.247Z,10.10
2022-11-05T20:19:56.336Z,10.00
2022-11-05T20:22:25.965Z,10.00
2022-11-05T20:24:53.988Z,10.00
2022-11-05T20:27:22.019Z,9.90
2022-11-05T20:29:50.122Z,10.00
2022-11-05T20:32:18.117Z,10.00
2022-11-05T20:34:46.135Z,9.90
2022-11-05T20:37:14.271Z,9.90
2022-11-05T20:39:43.826Z,9.90
2022-11-05T20:42:11.854Z,9.90
2022-11-05T20:44:39.931Z,9.80
2022-11-05T20:47:07.935Z,9.80
2022-11-05T20:49:36.059Z,9.80
2022-11-05T20:52:04.081Z,9.70
2022-11-05T20:54:32.092Z,9.80
2022-11-05T20:57:01.494Z,9.60
2022-11-05T20:59:29.672Z,9.70
2022-11-05T21:01:57.816Z,9.70
2022-11-05T21:04:25.950Z,9.80
2022-11-05T21:06:53.945Z,9.80
2022-11-05T21:09:22.026Z,9.80
2022-11-05T21:12:07.389Z,9.70
2022-11-05T21:14:37.010Z,9.80
2022-11-05T21:17:05.333Z,9.80
2022-11-05T21:19:34.248Z,9.80
2022-11-05T21:22:02.509Z,9.90
2022-11-05T21:24:30.571Z,9.80
2022-11-05T21:26:58.604Z,9.80
2022-11-05T21:29:26.697Z,9.80
2022-11-05T21:31:56.014Z,9.70
2022-11-05T21:34:24.218Z,9.80
2022-11-05T21:36:52.488Z,9.70
2022-11-05T21:39:20.552Z,9.70
2022-11-05T21:41:48.536Z,9.70
2022-11-05T21:44:16.653Z,9.70
2022-11-05T21:46:44.667Z,9.70
2022-11-05T21:49:15.110Z,9.70
2022-11-05T21:52:00.521Z,9.70
2022-11-05T21:54:45.875Z,9.80
2022-11-05T21:57:35.401Z,9.90
2022-11-05T22:00:06.038Z,9.90
2022-11-05T22:02:34.122Z,9.90
2022-11-05T22:05:03.754Z,10.00
2022-11-05T22:07:34.610Z,10.00
2022-11-05T22:10:03.625Z,10.00
2022-11-05T22:12:32.615Z,10.00
2022-11-05T22:15:00.735Z,9.90
2022-11-05T22:17:28.836Z,9.90
2022-11-05T22:19:57.259Z,9.90
2022-11-05T22:22:26.682Z,9.90
2022-11-05T22:24:54.812Z,10.00
2022-11-05T22:27:23.166Z,9.90
2022-11-05T22:29:51.524Z,9.90
2022-11-05T22:32:19.765Z,9.80
2022-11-05T22:34:49.637Z,9.90
2022-11-05T22:37:17.638Z,9.90
2022-11-05T22:39:46.994Z,9.80
2022-11-05T22:42:15.449Z,9.80
2022-11-05T22:44:43.547Z,9.70
2022-11-05T22:47:12.246Z,9.80
2022-11-05T22:49:40.288Z,9.80
2022-11-05T22:52:08.302Z,9.90
2022-11-05T22:54:39.191Z,9.90
2022-11-05T22:57:09.355Z,10.00
2022-11-05T22:59:37.770Z,9.90
2022-11-05T23:02:09.866Z,10.00
2022-11-05T23:04:39.565Z,10.00
2022-11-05T23:07:27.862Z,10.10
2022-11-05T23:10:14.189Z,10.10
2022-11-05T23:12:44.607Z,10.10
2022-11-05T23:15:34.355Z,10.10
2022-11-05T23:18:19.403Z,10.20
2022-11-05T23:21:05.275Z,10.10
2022-11-05T23:23:50.982Z,10.20
2022-11-05T23:26:36.675Z,10.20
2022-11-05T23:29:06.154Z,10.10
2022-11-05T23:31:51.603Z,10.10
2022-11-05T23:34:19.584Z,10.10
2022-11-05T23:37:01.568Z,10.00
2022-11-05T23:39:29.714Z,10.00
2022-11-05T23:42:23.566Z,10.10
2022-11-05T23:45:14.277Z,10.20
2022-11-05T23:48:00.278Z,10.10
2022-11-05T23:50:28.607Z,10.10
2022-11-05T23:52:56.737Z,10.20
2022-11-05T23:55:25.888Z,10.20
2022-11-05T23:57:54.371Z,10.30
